Map

Track Data

SID SEASON NUMBER BASIN SUBBASIN NAME ISO_TIME NATURE LAT LON WMO_WIND WMO_PRES WMO_AGENCY TRACK_TYPE DIST2LAND LANDFALL IFLAG USA_AGENCY USA_ATCF_ID USA_LAT USA_LON USA_RECORD USA_STATUS USA_WIND USA_PRES USA_SSHS USA_R34_NE USA_R34_SE USA_R34_SW USA_R34_NW USA_R50_NE USA_R50_SE USA_R50_SW USA_R50_NW USA_R64_NE USA_R64_SE USA_R64_SW USA_R64_NW USA_POCI USA_ROCI USA_RMW USA_EYE TOKYO_LAT TOKYO_LON TOKYO_GRADE TOKYO_WIND TOKYO_PRES TOKYO_R50_DIR TOKYO_R50_LONG TOKYO_R50_SHORT TOKYO_R30_DIR TOKYO_R30_LONG TOKYO_R30_SHORT TOKYO_LAND CMA_LAT CMA_LON CMA_CAT CMA_WIND CMA_PRES HKO_LAT HKO_LON HKO_CAT HKO_WIND HKO_PRES NEWDELHI_LAT NEWDELHI_LON NEWDELHI_GRADE NEWDELHI_WIND NEWDELHI_PRES NEWDELHI_CI NEWDELHI_DP NEWDELHI_POCI REUNION_LAT REUNION_LON REUNION_TYPE REUNION_WIND REUNION_PRES REUNION_TNUM REUNION_CI REUNION_RMW REUNION_R34_NE REUNION_R34_SE REUNION_R34_SW REUNION_R34_NW REUNION_R50_NE REUNION_R50_SE REUNION_R50_SW REUNION_R50_NW REUNION_R64_NE REUNION_R64_SE REUNION_R64_SW REUNION_R64_NW BOM_LAT BOM_LON BOM_TYPE BOM_WIND BOM_PRES BOM_TNUM BOM_CI BOM_RMW BOM_R34_NE BOM_R34_SE BOM_R34_SW BOM_R34_NW BOM_R50_NE BOM_R50_SE BOM_R50_SW BOM_R50_NW BOM_R64_NE BOM_R64_SE BOM_R64_SW BOM_R64_NW BOM_ROCI BOM_POCI BOM_EYE BOM_POS_METHOD BOM_PRES_METHOD NADI_LAT NADI_LON NADI_CAT NADI_WIND NADI_PRES WELLINGTON_LAT WELLINGTON_LON WELLINGTON_WIND WELLINGTON_PRES DS824_LAT DS824_LON DS824_STAGE DS824_WIND DS824_PRES TD9636_LAT TD9636_LON TD9636_STAGE TD9636_WIND TD9636_PRES TD9635_LAT TD9635_LON TD9635_WIND TD9635_PRES TD9635_ROCI NEUMANN_LAT NEUMANN_LON NEUMANN_CLASS NEUMANN_WIND NEUMANN_PRES MLC_LAT MLC_LON MLC_CLASS MLC_WIND MLC_PRES USA_GUST BOM_GUST BOM_GUST_PER REUNION_GUST REUNION_GUST_PER USA_SEAHGT USA_SEARAD_NE USA_SEARAD_SE USA_SEARAD_SW USA_SEARAD_NW STORM_SPEED STORM_DIR
1862070S15063 1862 9 SI MM NOT_NAMED 1862-03-11 06:00:00 NR -14.9000 63.3000 reunion spur-split 831 808 _____O________ -1 -14.9000 63.3000 99 9.90000 4 251
1862070S15063 1862 9 SI MM NOT_NAMED 1862-03-11 09:00:00 NR -14.9653 63.0985 spur-split 808 793 _____P________ -1 -14.9653 63.0985 99 4 252
1862070S15063 1862 9 SI MM NOT_NAMED 1862-03-11 12:00:00 NR -15.0301 62.8958 spur-split 793 770 _____P________ -1 -15.0301 62.8958 99 4 252
1862070S15063 1862 9 SI MM NOT_NAMED 1862-03-11 15:00:00 NR -15.0945 62.6910 spur-split 770 747 _____P________ -1 -15.0945 62.6910 99 4 252
1862070S15063 1862 9 SI MM NOT_NAMED 1862-03-11 18:00:00 NR -15.1580 62.4831 spur-split 747 733 _____P________ -1 -15.1580 62.4831 99 4 253
1862070S15063 1862 9 SI MM NOT_NAMED 1862-03-11 21:00:00 NR -15.2205 62.2710 spur-split 733 711 _____P________ -1 -15.2205 62.2710 99 4 253
1862070S15063 1862 9 SI MM NOT_NAMED 1862-03-12 00:00:00 NR -15.2818 62.0538 spur-split 711 690 _____P________ -1 -15.2818 62.0538 99 4 254
1862070S15063 1862 9 SI MM NOT_NAMED 1862-03-12 03:00:00 NR -15.3417 61.8305 spur-split 690 668 _____P________ -1 -15.3417 61.8305 99 5 255
1862070S15063 1862 9 SI MM NOT_NAMED 1862-03-12 06:00:00 NR -15.4000 61.6000 reunion spur-split 668 646 _____O________ -1 -15.4000 61.6000 99 9.90000 5 256
1862070S15063 1862 9 SI MM NOT_NAMED 1862-03-12 09:00:00 NR -15.4566 61.3616 spur-split 646 628 _____P________ -1 -15.4566 61.3616 99 5 256
1862070S15063 1862 9 SI MM NOT_NAMED 1862-03-12 12:00:00 NR -15.5125 61.1155 spur-split 628 606 _____P________ -1 -15.5125 61.1155 99 5 257
1862070S15063 1862 9 SI MM NOT_NAMED 1862-03-12 15:00:00 NR -15.5690 60.8621 spur-split 606 589 _____P________ -1 -15.5690 60.8621 99 5 257
1862070S15063 1862 9 SI MM NOT_NAMED 1862-03-12 18:00:00 NR -15.6271 60.6018 spur-split 589 569 _____P________ -1 -15.6271 60.6018 99 5 257
1862070S15063 1862 9 SI MM NOT_NAMED 1862-03-12 21:00:00 NR -15.6880 60.3350 spur-split 563 553 _____P________ -1 -15.6880 60.3350 99 5 256
1862070S15063 1862 9 SI MM NOT_NAMED 1862-03-13 00:00:00 NR -15.7530 60.0622 spur-split 543 529 _____P________ -1 -15.7530 60.0622 99 5 256
1862070S15063 1862 9 SI MM NOT_NAMED 1862-03-13 03:00:00 NR -15.8233 59.7838 spur-split 529 507 _____P________ -1 -15.8233 59.7838 99 6 255
1862070S15063 1862 9 SI MM NOT_NAMED 1862-03-13 06:00:00 NR -15.9000 59.5000 reunion spur-split 507 485 _____O________ -1 -15.9000 59.5000 99 9.90000 6 253
1862070S15063 1862 9 SI MM NOT_NAMED 1862-03-13 09:00:00 NR -15.9960 59.1857 spur-split 485 465 _____P________ -1 -15.9960 59.1857 99 6 252
1862070S15063 1862 9 SI MM NOT_NAMED 1862-03-13 12:00:00 NR -16.0995 58.8615 spur-split 465 446 _____P________ -1 -16.0995 58.8615 99 7 251
1862070S15063 1862 9 SI MM NOT_NAMED 1862-03-13 15:00:00 NR -16.2073 58.5343 spur-split 444 428 _____P________ -1 -16.2073 58.5343 99 7 251
1862070S15063 1862 9 SI MM NOT_NAMED 1862-03-13 18:00:00 NR -16.3162 58.2112 spur-split 428 414 _____P________ -1 -16.3162 58.2112 99 6 251
1862070S15063 1862 9 SI MM NOT_NAMED 1862-03-13 21:00:00 NR -16.4230 57.8992 spur-split 414 402 _____P________ -1 -16.4230 57.8992 99 6 250
1862070S15063 1862 9 SI MM NOT_NAMED 1862-03-14 00:00:00 NR -16.5246 57.6052 spur-split 402 391 _____P________ -1 -16.5246 57.6052 99 6 250
1862070S15063 1862 9 SI MM NOT_NAMED 1862-03-14 03:00:00 NR -16.6180 57.3364 spur-split 392 381 _____P________ -1 -16.6180 57.3364 99 5 250
1862070S15063 1862 9 SI MM NOT_NAMED 1862-03-14 06:00:00 NR -16.7000 57.1000 reunion spur-split 382 372 _____O________ -1 -16.7000 57.1000 99 9.90000 4 250
1862070S15063 1862 9 SI MM NOT_NAMED 1862-03-14 09:00:00 NR -16.7685 56.9010 spur-split 374 374 _____P________ -1 -16.7685 56.9010 99 4 250
1862070S15063 1862 9 SI MM NOT_NAMED 1862-03-14 12:00:00 NR -16.8246 56.7366 spur-split 378 367 _____P________ -1 -16.8246 56.7366 99 3 251
1862070S15063 1862 9 SI MM NOT_NAMED 1862-03-14 15:00:00 NR -16.8699 56.6018 spur-split 370 370 _____P________ -1 -16.8699 56.6018 99 2 251
1862070S15063 1862 9 SI MM NOT_NAMED 1862-03-14 18:00:00 NR -16.9065 56.4917 spur-split 373 373 _____P________ -1 -16.9065 56.4917 99 2 251
1862070S15063 1862 9 SI MM NOT_NAMED 1862-03-14 21:00:00 NR -16.9360 56.4015 spur-split 376 365 _____P________ -1 -16.9360 56.4015 99 2 251
1862070S15063 1862 9 SI MM NOT_NAMED 1862-03-15 00:00:00 NR -16.9603 56.3260 spur-split 369 369 _____P________ -1 -16.9603 56.3260 99 1 252
1862070S15063 1862 9 SI MM NOT_NAMED 1862-03-15 03:00:00 NR -16.9810 56.2606 spur-split 369 369 _____P________ -1 -16.9810 56.2606 99 1 251
1862070S15063 1862 9 SI MM NOT_NAMED 1862-03-15 06:00:00 NR -17.0000 56.2000 reunion spur-split 372 _____O________ -1 -17.0000 56.2000 99 9.90000 1 250

About IBTrACS Database

This database is a web-friendly format of International Best Track Archive for Climate Stewardship (IBTrACS), a global best track data archive curated by NOAA dating back to 1842.

Updated: 2021-10-25